createdAt,value
2023-01-17T00:01:16.508Z,3.67
2023-01-17T00:04:01.667Z,3.22
2023-01-17T00:06:46.795Z,4.05
2023-01-17T00:09:33.608Z,5.72
2023-01-17T00:12:02.086Z,2.28
2023-01-17T00:14:28.749Z,2.65
2023-01-17T00:16:55.383Z,2.00
2023-01-17T00:19:40.596Z,3.47
2023-01-17T00:22:30.411Z,3.28
2023-01-17T00:25:15.569Z,4.10
2023-01-17T00:27:42.109Z,2.95
2023-01-17T00:30:10.131Z,3.95
2023-01-17T00:32:36.716Z,2.33
2023-01-17T00:35:03.380Z,2.33
2023-01-17T00:37:29.968Z,2.35
2023-01-17T00:39:56.522Z,3.22
2023-01-17T00:42:23.128Z,2.65
2023-01-17T00:45:08.235Z,1.40
2023-01-17T00:47:55.661Z,2.58
2023-01-17T00:50:42.044Z,1.45
2023-01-17T00:53:27.220Z,3.40
2023-01-17T00:56:12.403Z,3.78
2023-01-17T00:58:57.547Z,3.50
2023-01-17T01:01:42.938Z,2.30
2023-01-17T01:04:28.114Z,6.47
2023-01-17T01:07:13.434Z,4.13
2023-01-17T01:09:58.631Z,2.80
2023-01-17T01:12:45.538Z,5.30
2023-01-17T01:15:30.942Z,4.35
2023-01-17T01:18:16.027Z,3.85
2023-01-17T01:21:01.077Z,2.35
2023-01-17T01:23:46.544Z,3.47
2023-01-17T01:26:31.728Z,2.50
2023-01-17T01:29:17.032Z,2.80
2023-01-17T01:32:02.187Z,3.75
2023-01-17T01:34:28.818Z,3.30
2023-01-17T01:36:55.499Z,4.72
2023-01-17T01:39:22.079Z,5.35
2023-01-17T01:41:48.718Z,4.80
2023-01-17T01:44:43.591Z,5.00
2023-01-17T01:47:14.091Z,3.55
2023-01-17T01:49:40.756Z,3.08
2023-01-17T01:52:10.299Z,1.65
2023-01-17T01:55:00.471Z,2.88
2023-01-17T01:57:32.305Z,3.03
2023-01-17T02:00:02.481Z,4.97
2023-01-17T02:02:30.978Z,2.58
2023-01-17T02:04:59.567Z,2.90
2023-01-17T02:07:32.714Z,3.20
2023-01-17T02:09:59.455Z,3.70
2023-01-17T02:12:26.812Z,4.40
2023-01-17T02:14:53.521Z,3.65
2023-01-17T02:17:58.012Z,4.35
2023-01-17T02:20:47.659Z,3.65
2023-01-17T02:23:44.266Z,3.85
2023-01-17T02:26:19.616Z,4.97
2023-01-17T02:29:06.982Z,4.53
2023-01-17T02:31:55.147Z,3.53
2023-01-17T02:34:52.557Z,2.92
2023-01-17T02:37:28.662Z,3.53
2023-01-17T02:40:06.760Z,3.67
2023-01-17T02:42:46.712Z,3.70
2023-01-17T02:45:20.682Z,4.82
2023-01-17T02:47:47.706Z,3.45
2023-01-17T02:50:16.926Z,4.40
2023-01-17T02:53:07.031Z,5.97
2023-01-17T02:55:52.199Z,4.30
2023-01-17T02:58:39.683Z,5.78
2023-01-17T03:01:27.209Z,3.40
2023-01-17T03:04:03.154Z,6.25
2023-01-17T03:06:40.331Z,3.08
2023-01-17T03:09:08.183Z,3.50
2023-01-17T03:11:34.816Z,5.03
2023-01-17T03:14:01.481Z,3.15
2023-01-17T03:16:31.389Z,3.35
2023-01-17T03:18:58.053Z,3.25
2023-01-17T03:21:24.709Z,3.38
2023-01-17T03:23:52.015Z,3.55
2023-01-17T03:26:18.746Z,4.00
2023-01-17T03:28:45.410Z,4.55
2023-01-17T03:31:16.961Z,4.97
2023-01-17T03:33:43.884Z,3.20
2023-01-17T03:36:11.881Z,4.10
2023-01-17T03:38:38.725Z,4.05
2023-01-17T03:41:06.215Z,3.15
2023-01-17T03:43:32.833Z,3.72
2023-01-17T03:46:04.472Z,5.38
2023-01-17T03:48:31.544Z,2.92
2023-01-17T03:50:58.163Z,3.15
2023-01-17T03:53:24.807Z,3.47
2023-01-17T03:55:51.660Z,4.70
2023-01-17T03:58:18.281Z,4.00
2023-01-17T04:00:44.844Z,5.43
2023-01-17T04:03:11.493Z,5.82
2023-01-17T04:05:38.120Z,3.35
2023-01-17T04:08:06.981Z,4.50
2023-01-17T04:10:33.755Z,5.72
2023-01-17T04:13:00.449Z,5.13
2023-01-17T04:15:27.095Z,6.32
2023-01-17T04:17:53.900Z,4.03
2023-01-17T04:20:38.121Z,6.07
2023-01-17T04:23:04.897Z,5.05
2023-01-17T04:25:31.888Z,4.57
2023-01-17T04:28:00.230Z,4.53
2023-01-17T04:30:28.299Z,7.60
2023-01-17T04:32:55.399Z,6.60
2023-01-17T04:35:22.318Z,5.30
2023-01-17T04:37:49.316Z,4.65
2023-01-17T04:40:16.220Z,4.53
2023-01-17T04:42:45.012Z,3.75
2023-01-17T04:45:12.440Z,6.40
2023-01-17T04:47:39.165Z,4.63
2023-01-17T04:50:07.968Z,3.08
2023-01-17T04:52:34.559Z,2.97
2023-01-17T04:55:01.186Z,2.97
2023-01-17T04:57:27.842Z,2.03
2023-01-17T04:59:54.439Z,3.28
2023-01-17T05:02:21.170Z,2.70
2023-01-17T05:04:47.931Z,1.63
2023-01-17T05:07:14.573Z,2.28
2023-01-17T05:09:41.230Z,3.38
2023-01-17T05:12:07.855Z,2.35
2023-01-17T05:14:34.512Z,1.40
2023-01-17T05:17:03.040Z,1.48
2023-01-17T05:19:29.845Z,2.72
2023-01-17T05:22:03.638Z,2.20
2023-01-17T05:24:31.292Z,2.97
2023-01-17T05:27:02.893Z,1.52
2023-01-17T05:29:30.366Z,2.42
2023-01-17T05:31:57.158Z,1.60
2023-01-17T05:34:23.848Z,1.40
2023-01-17T05:36:50.520Z,2.00
2023-01-17T05:39:17.142Z,3.30
2023-01-17T05:41:43.822Z,1.80
2023-01-17T05:44:10.593Z,1.95
2023-01-17T05:46:37.551Z,2.70
2023-01-17T05:49:04.249Z,2.78
2023-01-17T05:51:30.870Z,2.75
2023-01-17T05:53:57.468Z,1.75
2023-01-17T05:56:24.090Z,4.10
2023-01-17T05:58:50.702Z,2.25
2023-01-17T06:01:17.778Z,2.42
2023-01-17T06:03:44.449Z,3.75
2023-01-17T06:06:11.096Z,3.55
2023-01-17T06:08:37.708Z,2.63
2023-01-17T06:11:04.315Z,3.60
2023-01-17T06:13:30.950Z,2.70
2023-01-17T06:16:02.629Z,2.92
2023-01-17T06:18:29.747Z,2.45
2023-01-17T06:20:56.675Z,4.43
2023-01-17T06:23:24.442Z,3.58
2023-01-17T06:25:51.101Z,3.00
2023-01-17T06:28:20.882Z,3.30
2023-01-17T06:30:47.893Z,4.32
2023-01-17T06:33:14.819Z,4.00
2023-01-17T06:35:48.990Z,4.32
2023-01-17T06:38:15.794Z,6.00
2023-01-17T06:40:42.445Z,5.70
2023-01-17T06:43:09.138Z,5.13
2023-01-17T06:45:36.496Z,4.68
2023-01-17T06:48:05.064Z,5.55
2023-01-17T06:50:33.414Z,5.65
2023-01-17T06:53:05.724Z,4.47
2023-01-17T06:55:33.729Z,4.50
2023-01-17T06:58:02.630Z,4.93
2023-01-17T07:00:30.727Z,4.43
2023-01-17T07:02:57.469Z,4.82
2023-01-17T07:05:24.297Z,6.95
2023-01-17T07:07:51.247Z,6.40
2023-01-17T07:10:17.984Z,7.15
2023-01-17T07:12:44.691Z,4.93
2023-01-17T07:15:11.891Z,7.05
2023-01-17T07:17:38.704Z,5.75
2023-01-17T07:20:06.227Z,5.57
2023-01-17T07:22:32.890Z,4.80
2023-01-17T07:24:59.578Z,4.80
2023-01-17T07:27:27.728Z,8.43
2023-01-17T07:29:54.523Z,6.55
2023-01-17T07:32:21.291Z,7.38
2023-01-17T07:34:47.989Z,6.22
2023-01-17T07:37:15.485Z,6.53
2023-01-17T07:39:42.338Z,8.20
2023-01-17T07:42:09.251Z,8.18
2023-01-17T07:44:36.010Z,7.82
2023-01-17T07:47:04.170Z,6.70
2023-01-17T07:49:30.815Z,11.23
2023-01-17T07:51:57.613Z,7.95
2023-01-17T07:54:24.215Z,5.88
2023-01-17T07:56:50.863Z,5.63
2023-01-17T07:59:18.144Z,6.03
2023-01-17T08:01:44.886Z,7.43
2023-01-17T08:04:11.707Z,7.10
2023-01-17T08:06:41.994Z,5.43
2023-01-17T08:09:08.622Z,5.50
2023-01-17T08:11:35.196Z,5.15
2023-01-17T08:14:01.832Z,6.15
2023-01-17T08:16:29.628Z,4.75
2023-01-17T08:18:56.556Z,7.57
2023-01-17T08:21:23.566Z,6.43
2023-01-17T08:23:51.735Z,9.65
2023-01-17T08:26:23.333Z,7.85
2023-01-17T08:28:56.137Z,6.65
2023-01-17T08:31:23.816Z,6.53
2023-01-17T08:33:50.540Z,6.88
2023-01-17T08:36:17.297Z,5.80
2023-01-17T08:38:44.183Z,6.53
2023-01-17T08:41:10.785Z,5.93
2023-01-17T08:43:37.411Z,7.55
2023-01-17T08:46:06.163Z,5.70
2023-01-17T08:48:32.821Z,5.28
2023-01-17T08:51:03.463Z,6.45
2023-01-17T08:53:30.185Z,7.88
2023-01-17T08:56:01.376Z,10.13
2023-01-17T08:58:30.669Z,7.28
2023-01-17T09:01:05.805Z,7.20
2023-01-17T09:03:33.989Z,7.53
2023-01-17T09:06:12.453Z,7.40
2023-01-17T09:08:39.743Z,6.68
2023-01-17T09:11:12.053Z,7.75
2023-01-17T09:13:39.629Z,6.35
2023-01-17T09:16:06.917Z,5.90
2023-01-17T09:18:35.378Z,6.35
2023-01-17T09:21:13.230Z,6.32
2023-01-17T09:23:40.388Z,8.43
2023-01-17T09:26:07.119Z,9.32
2023-01-17T09:28:40.950Z,7.40
2023-01-17T09:31:08.300Z,10.18
2023-01-17T09:33:35.023Z,5.75
2023-01-17T09:36:04.216Z,7.05
2023-01-17T09:38:31.338Z,8.23
2023-01-17T09:40:58.519Z,7.32
2023-01-17T09:43:46.762Z,8.80
2023-01-17T09:46:22.561Z,6.88
2023-01-17T09:49:08.561Z,7.68
2023-01-17T09:51:36.495Z,7.82
2023-01-17T09:54:03.257Z,6.07
2023-01-17T09:56:38.559Z,7.05
2023-01-17T09:59:16.859Z,5.65
2023-01-17T10:01:59.095Z,7.55
2023-01-17T10:05:03.795Z,7.70
2023-01-17T10:07:50.765Z,5.13
2023-01-17T10:10:41.797Z,7.70
2023-01-17T10:13:33.502Z,7.10
2023-01-17T10:16:27.185Z,6.50
2023-01-17T10:19:10.694Z,7.38
2023-01-17T10:21:49.522Z,7.57
2023-01-17T10:24:58.696Z,6.88
2023-01-17T10:27:33.878Z,8.88
2023-01-17T10:30:03.337Z,8.43
2023-01-17T10:32:32.852Z,7.20
2023-01-17T10:35:14.211Z,6.63
2023-01-17T10:37:44.205Z,6.40
2023-01-17T10:40:17.434Z,5.45
2023-01-17T10:42:57.578Z,8.30
2023-01-17T10:45:28.792Z,4.47
2023-01-17T10:48:09.152Z,5.10
2023-01-17T10:50:50.824Z,3.92
2023-01-17T10:53:41.483Z,4.35
2023-01-17T10:56:09.386Z,4.90
2023-01-17T10:58:36.004Z,5.00
2023-01-17T11:01:13.699Z,4.88
2023-01-17T11:03:40.802Z,5.93
2023-01-17T11:06:17.958Z,4.22
2023-01-17T11:08:59.044Z,4.75
2023-01-17T11:11:32.024Z,4.93
2023-01-17T11:14:07.597Z,3.95
2023-01-17T11:16:35.776Z,3.70
2023-01-17T11:19:27.901Z,5.93
2023-01-17T11:21:58.542Z,3.70
2023-01-17T11:24:34.578Z,3.47
2023-01-17T11:27:03.790Z,3.45
2023-01-17T11:29:39.087Z,5.32
2023-01-17T11:32:34.317Z,5.88
2023-01-17T11:35:12.567Z,7.03
2023-01-17T11:37:40.882Z,4.07
2023-01-17T11:40:21.876Z,3.28
2023-01-17T11:43:03.179Z,6.90
2023-01-17T11:45:34.808Z,5.65
2023-01-17T11:48:07.888Z,4.63
2023-01-17T11:50:38.841Z,4.35
2023-01-17T11:53:28.611Z,4.68
2023-01-17T11:56:18.327Z,5.45
2023-01-17T11:58:47.161Z,3.58
2023-01-17T12:01:28.787Z,4.78
2023-01-17T12:04:20.073Z,3.28
2023-01-17T12:07:22.408Z,3.97
2023-01-17T12:10:12.566Z,6.65
2023-01-17T12:13:17.340Z,5.03
2023-01-17T12:16:37.708Z,4.43
2023-01-17T12:19:21.593Z,5.78
2023-01-17T12:22:19.393Z,6.03
2023-01-17T12:25:08.545Z,9.07
2023-01-17T12:27:49.773Z,6.30
2023-01-17T12:30:41.532Z,4.57
2023-01-17T12:33:27.827Z,5.55
2023-01-17T12:36:03.167Z,5.15
2023-01-17T12:38:39.299Z,7.60
2023-01-17T12:41:10.157Z,4.72
2023-01-17T12:43:40.347Z,5.80
2023-01-17T12:46:21.291Z,4.68
2023-01-17T12:48:52.433Z,4.28
2023-01-17T12:51:29.372Z,4.53
2023-01-17T12:54:15.700Z,5.00
2023-01-17T12:56:52.375Z,4.78
2023-01-17T12:59:25.138Z,4.97
2023-01-17T13:01:58.935Z,4.53
2023-01-17T13:04:58.694Z,5.55
2023-01-17T13:07:37.409Z,5.43
2023-01-17T13:10:44.350Z,4.53
2023-01-17T13:13:22.119Z,4.35
2023-01-17T13:15:52.200Z,5.90
2023-01-17T13:18:25.888Z,3.42
2023-01-17T13:21:27.081Z,4.32
2023-01-17T13:24:00.140Z,4.32
2023-01-17T13:26:55.730Z,4.90
2023-01-17T13:29:47.082Z,5.38
2023-01-17T13:33:01.572Z,4.25
2023-01-17T13:35:58.157Z,5.30
2023-01-17T13:38:57.432Z,5.90
2023-01-17T13:41:45.188Z,5.13
2023-01-17T13:44:24.168Z,3.75
2023-01-17T13:46:58.464Z,3.70
2023-01-17T13:49:36.926Z,3.97
2023-01-17T13:52:27.567Z,3.90
2023-01-17T13:55:00.901Z,4.63
2023-01-17T13:57:33.182Z,4.18
2023-01-17T14:00:22.002Z,5.10
2023-01-17T14:02:50.505Z,5.05
2023-01-17T14:05:29.146Z,5.10
2023-01-17T14:07:59.815Z,4.32
2023-01-17T14:10:29.435Z,5.68
2023-01-17T14:12:56.605Z,3.92
2023-01-17T14:15:27.312Z,4.13
2023-01-17T14:18:00.576Z,5.00
2023-01-17T14:20:27.397Z,4.32
2023-01-17T14:23:01.650Z,5.75
2023-01-17T14:25:30.727Z,6.55
2023-01-17T14:28:03.093Z,4.10
2023-01-17T14:30:37.981Z,3.67
2023-01-17T14:33:18.386Z,5.28
2023-01-17T14:36:24.825Z,4.43
2023-01-17T14:38:51.999Z,4.10
2023-01-17T14:41:24.810Z,13.80
2023-01-17T14:43:52.145Z,5.13
2023-01-17T14:46:32.246Z,4.85
2023-01-17T14:49:01.488Z,9.40
2023-01-17T14:51:28.728Z,4.55
2023-01-17T14:54:02.226Z,8.25
2023-01-17T14:59:19.123Z,5.30
2023-01-17T15:02:06.609Z,6.15
2023-01-17T15:04:39.048Z,4.28
2023-01-17T15:07:06.744Z,5.07
2023-01-17T15:09:37.276Z,6.18
2023-01-17T15:12:04.815Z,10.57
2023-01-17T15:14:36.217Z,11.02
2023-01-17T15:17:19.390Z,4.82
2023-01-17T15:19:50.809Z,5.40
2023-01-17T15:22:18.632Z,5.53
2023-01-17T15:24:46.452Z,6.95
2023-01-17T15:27:15.139Z,6.53
2023-01-17T15:29:43.086Z,7.10
2023-01-17T15:32:31.151Z,4.47
2023-01-17T15:34:59.310Z,3.72
2023-01-17T15:37:37.493Z,4.47
2023-01-17T15:40:07.397Z,6.05
2023-01-17T15:42:38.465Z,6.13
2023-01-17T15:45:09.262Z,5.80
2023-01-17T15:47:41.130Z,6.28
2023-01-17T15:50:20.207Z,7.80
2023-01-17T15:52:58.800Z,9.40
2023-01-17T15:55:34.312Z,7.55
2023-01-17T15:58:02.200Z,6.15
2023-01-17T16:00:38.285Z,5.72
2023-01-17T16:03:22.692Z,6.22
2023-01-17T16:05:50.471Z,6.95
2023-01-17T16:08:22.773Z,5.05
2023-01-17T16:10:58.440Z,6.95
2023-01-17T16:13:25.226Z,10.18
2023-01-17T16:15:51.891Z,8.95
2023-01-17T16:18:26.187Z,8.43
2023-01-17T16:21:00.436Z,7.07
2023-01-17T16:23:28.179Z,5.15
2023-01-17T16:25:54.779Z,6.35
2023-01-17T16:28:21.377Z,5.80
2023-01-17T16:30:48.816Z,4.25
2023-01-17T16:33:15.822Z,5.60
2023-01-17T16:35:43.994Z,5.13
2023-01-17T16:38:13.960Z,7.72
2023-01-17T16:40:44.338Z,4.47
2023-01-17T16:43:12.229Z,7.20
2023-01-17T16:45:47.430Z,8.40
2023-01-17T16:48:14.591Z,6.60
2023-01-17T16:50:47.928Z,8.98
2023-01-17T16:53:15.194Z,8.32
2023-01-17T16:55:43.388Z,8.30
2023-01-17T16:58:10.572Z,8.05
2023-01-17T17:00:37.210Z,7.63
2023-01-17T17:03:03.869Z,6.93
2023-01-17T17:05:33.353Z,7.88
2023-01-17T17:08:01.036Z,7.57
2023-01-17T17:10:27.766Z,7.60
2023-01-17T17:12:54.854Z,8.38
2023-01-17T17:15:21.517Z,7.93
2023-01-17T17:17:48.367Z,10.40
2023-01-17T17:20:15.793Z,9.25
2023-01-17T17:22:44.428Z,8.05
2023-01-17T17:25:12.098Z,9.70
2023-01-17T17:27:38.894Z,8.70
2023-01-17T17:30:06.272Z,9.07
2023-01-17T17:32:32.955Z,10.27
2023-01-17T17:34:59.845Z,8.05
2023-01-17T17:37:29.002Z,8.90
2023-01-17T17:39:56.834Z,9.60
2023-01-17T17:42:23.658Z,9.52
2023-01-17T17:44:50.304Z,8.88
2023-01-17T17:47:17.774Z,10.13
2023-01-17T17:49:44.412Z,10.98
2023-01-17T17:52:11.089Z,8.88
2023-01-17T17:54:37.800Z,9.13
2023-01-17T17:57:04.693Z,9.52
2023-01-17T17:59:31.702Z,8.73
2023-01-17T18:01:59.630Z,7.93
2023-01-17T18:04:27.010Z,7.25
2023-01-17T18:06:59.906Z,10.85
2023-01-17T18:09:26.573Z,10.45
2023-01-17T18:11:53.484Z,9.65
2023-01-17T18:14:23.822Z,7.90
2023-01-17T18:16:51.399Z,10.38
2023-01-17T18:19:23.997Z,9.73
2023-01-17T18:21:51.758Z,10.47
2023-01-17T18:24:23.411Z,12.73
2023-01-17T18:26:51.790Z,14.80
2023-01-17T18:29:20.785Z,15.93
2023-01-17T18:31:52.289Z,17.98
2023-01-17T18:34:23.519Z,13.07
2023-01-17T18:36:51.636Z,12.85
2023-01-17T18:39:22.767Z,8.65
2023-01-17T18:41:49.498Z,10.75
2023-01-17T18:44:16.781Z,11.32
2023-01-17T18:46:43.598Z,14.13
2023-01-17T18:49:12.109Z,12.25
2023-01-17T18:51:38.970Z,13.68
2023-01-17T18:54:07.115Z,19.17
2023-01-17T18:56:34.353Z,19.65
2023-01-17T18:59:01.828Z,17.95
2023-01-17T19:01:30.724Z,14.88
2023-01-17T19:03:59.228Z,11.65
2023-01-17T19:06:31.585Z,13.63
2023-01-17T19:08:58.934Z,13.07
2023-01-17T19:11:27.155Z,10.73
2023-01-17T19:13:54.169Z,12.73
2023-01-17T19:16:28.020Z,11.18
2023-01-17T19:18:56.950Z,10.05
2023-01-17T19:21:27.486Z,9.52
2023-01-17T19:23:55.626Z,10.55
2023-01-17T19:26:27.094Z,10.25
2023-01-17T19:28:56.064Z,9.10
2023-01-17T19:31:25.802Z,10.77
2023-01-17T19:33:56.731Z,8.68
2023-01-17T19:36:26.647Z,14.88
2023-01-17T19:39:03.987Z,11.15
2023-01-17T19:41:31.825Z,8.13
2023-01-17T19:44:00.827Z,8.55
2023-01-17T19:46:27.867Z,10.50
2023-01-17T19:48:56.134Z,11.32
2023-01-17T19:51:23.799Z,9.55
2023-01-17T19:53:50.540Z,13.02
2023-01-17T19:56:19.573Z,12.10
2023-01-17T19:58:46.937Z,10.10
2023-01-17T20:01:15.914Z,13.48
2023-01-17T20:03:44.178Z,11.95
2023-01-17T20:06:13.116Z,10.77
2023-01-17T20:08:40.608Z,13.18
2023-01-17T20:11:10.642Z,11.45
2023-01-17T20:13:37.220Z,14.18
2023-01-17T20:16:05.924Z,12.77
2023-01-17T20:18:33.448Z,11.15
2023-01-17T20:21:10.203Z,11.73
2023-01-17T20:23:38.802Z,12.38
2023-01-17T20:26:05.941Z,12.95
2023-01-17T20:28:35.120Z,13.15
2023-01-17T20:31:13.441Z,12.90
2023-01-17T20:33:41.761Z,11.63
2023-01-17T20:36:11.483Z,11.10
2023-01-17T20:38:45.028Z,12.10
2023-01-17T20:41:20.266Z,14.68
2023-01-17T20:43:54.548Z,14.30
2023-01-17T20:46:23.253Z,14.63
2023-01-17T20:48:52.338Z,16.17
2023-01-17T20:51:20.029Z,14.23
2023-01-17T20:53:50.716Z,15.77
2023-01-17T20:56:18.055Z,12.38
2023-01-17T20:58:45.043Z,12.50
2023-01-17T21:01:19.981Z,10.93
2023-01-17T21:03:51.449Z,9.73
2023-01-17T21:06:19.351Z,16.45
2023-01-17T21:08:47.605Z,13.35
2023-01-17T21:11:20.694Z,14.35
2023-01-17T21:13:48.712Z,10.70
2023-01-17T21:16:20.214Z,10.52
2023-01-17T21:18:49.112Z,10.60
2023-01-17T21:21:21.979Z,10.10
2023-01-17T21:23:49.936Z,11.60
2023-01-17T21:26:17.768Z,13.20
2023-01-17T21:28:46.191Z,13.02
2023-01-17T21:31:24.362Z,12.27
2023-01-17T21:33:54.164Z,12.40
2023-01-17T21:36:23.225Z,11.45
2023-01-17T21:38:52.470Z,13.98
2023-01-17T21:41:25.508Z,13.13
2023-01-17T21:43:56.857Z,16.10
2023-01-17T21:46:24.294Z,12.27
2023-01-17T21:48:50.966Z,10.73
2023-01-17T21:51:19.465Z,11.35
2023-01-17T21:53:46.194Z,11.27
2023-01-17T21:56:32.929Z,9.68
2023-01-17T21:58:59.729Z,12.70
2023-01-17T22:01:32.413Z,10.75
2023-01-17T22:04:03.754Z,10.93
2023-01-17T22:06:34.337Z,9.27
2023-01-17T22:09:01.236Z,9.98
2023-01-17T22:11:30.245Z,9.48
2023-01-17T22:13:58.990Z,10.32
2023-01-17T22:16:26.018Z,10.93
2023-01-17T22:18:52.908Z,10.73
2023-01-17T22:21:22.224Z,9.48
2023-01-17T22:23:53.959Z,9.55
2023-01-17T22:26:22.346Z,9.40
2023-01-17T22:28:49.084Z,7.93
2023-01-17T22:31:20.725Z,10.70
2023-01-17T22:33:52.063Z,8.23
2023-01-17T22:36:20.090Z,9.90
2023-01-17T22:38:47.106Z,10.68
2023-01-17T22:41:16.679Z,9.63
2023-01-17T22:43:46.722Z,10.93
2023-01-17T22:46:16.475Z,11.13
2023-01-17T22:48:43.553Z,12.20
2023-01-17T22:51:12.966Z,10.52
2023-01-17T22:53:44.872Z,12.50
2023-01-17T22:56:15.110Z,12.50
2023-01-17T22:58:44.717Z,11.18
2023-01-17T23:01:20.471Z,10.63
2023-01-17T23:03:52.197Z,9.95
2023-01-17T23:06:21.691Z,10.43
2023-01-17T23:08:51.060Z,8.98
2023-01-17T23:11:43.364Z,9.77
2023-01-17T23:14:19.064Z,10.88
2023-01-17T23:17:07.367Z,10.65
2023-01-17T23:19:52.384Z,8.82
2023-01-17T23:22:24.473Z,13.30
2023-01-17T23:25:17.474Z,9.85
2023-01-17T23:28:06.064Z,10.07
2023-01-17T23:30:41.032Z,10.65
2023-01-17T23:33:10.464Z,13.52
2023-01-17T23:35:42.230Z,10.23
2023-01-17T23:38:25.773Z,13.75
2023-01-17T23:41:17.658Z,11.75
2023-01-17T23:43:44.530Z,10.38
2023-01-17T23:46:12.313Z,10.70
2023-01-17T23:48:38.906Z,11.07
2023-01-17T23:51:08.607Z,10.00
2023-01-17T23:53:37.224Z,10.32
2023-01-17T23:56:17.448Z,10.52
2023-01-17T23:58:44.301Z,11.85
